sensor_id;sensor_type;location;lat;lon;timestamp;pressure;altitude;pressure_sealevel;temperature;humidity
48053;BME280;33824;51.600;5.718;2023-03-23T00:02:29;100088.81;;;12.89;96.57
48053;BME280;33824;51.600;5.718;2023-03-23T00:04:58;100091.69;;;13.01;97.17
48053;BME280;33824;51.600;5.718;2023-03-23T00:07:25;100093.72;;;13.05;97.11
48053;BME280;33824;51.600;5.718;2023-03-23T00:09:54;100091.28;;;13.04;96.88
48053;BME280;33824;51.600;5.718;2023-03-23T00:12:21;100115.34;;;13.04;96.41
48053;BME280;33824;51.600;5.718;2023-03-23T00:15:05;100117.00;;;13.05;96.06
48053;BME280;33824;51.600;5.718;2023-03-23T00:17:31;100101.19;;;13.16;96.14
48053;BME280;33824;51.600;5.718;2023-03-23T00:20:01;100084.28;;;13.16;95.98
48053;BME280;33824;51.600;5.718;2023-03-23T00:22:30;100086.13;;;13.15;95.61
48053;BME280;33824;51.600;5.718;2023-03-23T00:24:56;100104.25;;;13.13;95.72
48053;BME280;33824;51.600;5.718;2023-03-23T00:27:22;100120.31;;;13.13;95.88
48053;BME280;33824;51.600;5.718;2023-03-23T00:29:49;100113.31;;;13.12;95.83
48053;BME280;33824;51.600;5.718;2023-03-23T00:32:20;100093.75;;;13.18;95.32
48053;BME280;33824;51.600;5.718;2023-03-23T00:34:54;100096.22;;;13.20;95.25
48053;BME280;33824;51.600;5.718;2023-03-23T00:37:20;100096.81;;;13.22;95.11
48053;BME280;33824;51.600;5.718;2023-03-23T00:39:46;100094.34;;;13.20;95.10
48053;BME280;33824;51.600;5.718;2023-03-23T00:42:14;100092.50;;;13.21;95.01
48053;BME280;33824;51.600;5.718;2023-03-23T00:44:40;100096.63;;;13.23;94.29
48053;BME280;33824;51.600;5.718;2023-03-23T00:47:06;100089.63;;;13.22;94.48
48053;BME280;33824;51.600;5.718;2023-03-23T00:49:34;100095.56;;;13.24;94.38
48053;BME280;33824;51.600;5.718;2023-03-23T00:52:00;100102.78;;;13.30;94.26
48053;BME280;33824;51.600;5.718;2023-03-23T00:54:27;100093.09;;;13.29;94.35
48053;BME280;33824;51.600;5.718;2023-03-23T00:56:53;100083.41;;;13.28;94.23
48053;BME280;33824;51.600;5.718;2023-03-23T00:59:19;100074.56;;;13.34;93.87
48053;BME280;33824;51.600;5.718;2023-03-23T01:01:45;100081.16;;;13.38;94.07
48053;BME280;33824;51.600;5.718;2023-03-23T01:04:11;100078.88;;;13.42;93.81
48053;BME280;33824;51.600;5.718;2023-03-23T01:06:39;100073.94;;;13.39;93.75
48053;BME280;33824;51.600;5.718;2023-03-23T01:09:14;100076.84;;;13.31;93.29
48053;BME280;33824;51.600;5.718;2023-03-23T01:11:44;100078.03;;;13.41;93.24
48053;BME280;33824;51.600;5.718;2023-03-23T01:14:10;100082.53;;;13.48;93.15
48053;BME280;33824;51.600;5.718;2023-03-23T01:16:36;100083.75;;;13.52;93.02
48053;BME280;33824;51.600;5.718;2023-03-23T01:19:02;100070.59;;;13.43;93.52
48053;BME280;33824;51.600;5.718;2023-03-23T01:21:27;100073.31;;;13.37;93.94
48053;BME280;33824;51.600;5.718;2023-03-23T01:23:53;100070.66;;;13.30;94.33
48053;BME280;33824;51.600;5.718;2023-03-23T01:26:22;100046.75;;;13.29;94.26
48053;BME280;33824;51.600;5.718;2023-03-23T01:28:48;100034.59;;;13.33;94.40
48053;BME280;33824;51.600;5.718;2023-03-23T01:31:16;100018.97;;;13.30;94.37
48053;BME280;33824;51.600;5.718;2023-03-23T01:33:42;100034.63;;;13.26;94.67
48053;BME280;33824;51.600;5.718;2023-03-23T01:36:14;100027.22;;;13.22;94.68
48053;BME280;33824;51.600;5.718;2023-03-23T01:38:43;100014.88;;;13.21;95.18
48053;BME280;33824;51.600;5.718;2023-03-23T01:41:09;100018.38;;;13.21;95.28
48053;BME280;33824;51.600;5.718;2023-03-23T01:43:35;100010.34;;;13.21;95.31
48053;BME280;33824;51.600;5.718;2023-03-23T01:46:00;100023.13;;;13.19;95.52
48053;BME280;33824;51.600;5.718;2023-03-23T01:48:38;100009.75;;;13.13;94.70
48053;BME280;33824;51.600;5.718;2023-03-23T01:51:08;100017.78;;;13.19;94.94
48053;BME280;33824;51.600;5.718;2023-03-23T01:53:42;100022.28;;;13.19;94.93
48053;BME280;33824;51.600;5.718;2023-03-23T01:56:09;100024.16;;;13.18;95.25
48053;BME280;33824;51.600;5.718;2023-03-23T01:58:38;100024.31;;;13.30;94.85
48053;BME280;33824;51.600;5.718;2023-03-23T02:01:06;100025.16;;;13.30;94.66
48053;BME280;33824;51.600;5.718;2023-03-23T02:03:35;100015.25;;;13.31;94.24
48053;BME280;33824;51.600;5.718;2023-03-23T02:06:01;100019.38;;;13.33;94.73
48053;BME280;33824;51.600;5.718;2023-03-23T02:08:28;99998.53;;;13.35;93.98
48053;BME280;33824;51.600;5.718;2023-03-23T02:10:55;99989.09;;;13.33;94.18
48053;BME280;33824;51.600;5.718;2023-03-23T02:13:21;99985.81;;;13.31;94.74
48053;BME280;33824;51.600;5.718;2023-03-23T02:16:06;99979.91;;;13.16;94.11
48053;BME280;33824;51.600;5.718;2023-03-23T02:24:54;99979.47;;;13.19;93.49
48053;BME280;33824;51.600;5.718;2023-03-23T02:30:41;99963.84;;;13.16;92.91
48053;BME280;33824;51.600;5.718;2023-03-23T02:36:37;99962.97;;;13.22;92.20
48053;BME280;33824;51.600;5.718;2023-03-23T02:39:13;99974.09;;;13.25;92.28
48053;BME280;33824;51.600;5.718;2023-03-23T02:41:51;99976.34;;;13.28;92.64
48053;BME280;33824;51.600;5.718;2023-03-23T02:44:18;99966.22;;;13.37;92.73
48053;BME280;33824;51.600;5.718;2023-03-23T02:46:44;99950.97;;;13.37;91.84
48053;BME280;33824;51.600;5.718;2023-03-23T02:49:12;99957.31;;;13.43;92.01
48053;BME280;33824;51.600;5.718;2023-03-23T02:51:40;99957.72;;;13.47;92.15
48053;BME280;33824;51.600;5.718;2023-03-23T02:54:09;99959.50;;;13.59;91.34
48053;BME280;33824;51.600;5.718;2023-03-23T02:56:35;99959.72;;;13.58;91.54
48053;BME280;33824;51.600;5.718;2023-03-23T02:59:01;99960.56;;;13.58;91.85
48053;BME280;33824;51.600;5.718;2023-03-23T03:04:00;99977.00;;;13.62;91.28
48053;BME280;33824;51.600;5.718;2023-03-23T03:06:35;99958.50;;;13.54;91.21
48053;BME280;33824;51.600;5.718;2023-03-23T03:09:07;99962.19;;;13.59;90.83
48053;BME280;33824;51.600;5.718;2023-03-23T03:11:36;99961.16;;;13.60;91.36
48053;BME280;33824;51.600;5.718;2023-03-23T03:14:07;99963.44;;;13.57;91.29
48053;BME280;33824;51.600;5.718;2023-03-23T03:16:44;99972.31;;;13.51;91.12
48053;BME280;33824;51.600;5.718;2023-03-23T03:19:24;99984.06;;;13.50;90.74
48053;BME280;33824;51.600;5.718;2023-03-23T03:21:53;99975.81;;;13.58;91.80
48053;BME280;33824;51.600;5.718;2023-03-23T03:24:21;99984.22;;;13.61;91.46
48053;BME280;33824;51.600;5.718;2023-03-23T03:26:50;99972.44;;;13.62;91.37
48053;BME280;33824;51.600;5.718;2023-03-23T03:29:21;99971.22;;;13.65;91.24
48053;BME280;33824;51.600;5.718;2023-03-23T03:31:50;99965.69;;;13.60;91.56
48053;BME280;33824;51.600;5.718;2023-03-23T03:34:20;99977.38;;;13.27;92.39
48053;BME280;33824;51.600;5.718;2023-03-23T03:36:47;99984.22;;;13.55;91.90
48053;BME280;33824;51.600;5.718;2023-03-23T03:39:15;99980.91;;;13.59;92.06
48053;BME280;33824;51.600;5.718;2023-03-23T03:41:43;99975.97;;;13.63;91.94
48053;BME280;33824;51.600;5.718;2023-03-23T03:44:09;99968.53;;;13.65;91.71
48053;BME280;33824;51.600;5.718;2023-03-23T03:46:36;99968.97;;;13.62;91.29
48053;BME280;33824;51.600;5.718;2023-03-23T03:49:04;99973.72;;;13.60;91.10
48053;BME280;33824;51.600;5.718;2023-03-23T03:51:31;99972.25;;;13.64;91.10
48053;BME280;33824;51.600;5.718;2023-03-23T03:53:57;99972.88;;;13.59;90.93
48053;BME280;33824;51.600;5.718;2023-03-23T03:56:23;99980.91;;;13.59;90.95
48053;BME280;33824;51.600;5.718;2023-03-23T03:58:49;99978.88;;;13.61;91.19
48053;BME280;33824;51.600;5.718;2023-03-23T04:01:18;99977.16;;;13.67;90.17
48053;BME280;33824;51.600;5.718;2023-03-23T04:03:44;99969.78;;;13.62;90.63
48053;BME280;33824;51.600;5.718;2023-03-23T04:06:10;99979.69;;;13.62;90.73
48053;BME280;33824;51.600;5.718;2023-03-23T04:08:39;99989.16;;;13.64;90.03
48053;BME280;33824;51.600;5.718;2023-03-23T04:11:10;99988.75;;;13.61;90.00
48053;BME280;33824;51.600;5.718;2023-03-23T04:13:37;99992.47;;;13.60;89.95
48053;BME280;33824;51.600;5.718;2023-03-23T04:16:04;99993.94;;;13.56;89.31
48053;BME280;33824;51.600;5.718;2023-03-23T04:18:29;99987.09;;;13.60;88.56
48053;BME280;33824;51.600;5.718;2023-03-23T04:20:58;99988.53;;;13.62;88.20
48053;BME280;33824;51.600;5.718;2023-03-23T04:23:25;99983.41;;;13.61;87.20
48053;BME280;33824;51.600;5.718;2023-03-23T04:25:52;99987.34;;;13.58;87.32
48053;BME280;33824;51.600;5.718;2023-03-23T04:28:21;99994.13;;;13.61;85.84
48053;BME280;33824;51.600;5.718;2023-03-23T04:30:51;99989.38;;;13.56;86.03
48053;BME280;33824;51.600;5.718;2023-03-23T04:33:21;99998.25;;;13.57;86.05
48053;BME280;33824;51.600;5.718;2023-03-23T04:35:47;99995.97;;;13.60;85.65
48053;BME280;33824;51.600;5.718;2023-03-23T04:38:15;99991.25;;;13.56;85.15
48053;BME280;33824;51.600;5.718;2023-03-23T04:40:43;100013.06;;;13.59;85.20
48053;BME280;33824;51.600;5.718;2023-03-23T04:43:09;99993.09;;;13.62;84.55
48053;BME280;33824;51.600;5.718;2023-03-23T04:45:38;100014.91;;;13.59;84.38
48053;BME280;33824;51.600;5.718;2023-03-23T04:48:07;100014.50;;;13.62;84.35
48053;BME280;33824;51.600;5.718;2023-03-23T04:50:34;100010.19;;;13.61;84.09
48053;BME280;33824;51.600;5.718;2023-03-23T04:53:00;100020.47;;;13.64;84.39
48053;BME280;33824;51.600;5.718;2023-03-23T04:55:34;100014.72;;;13.60;84.04
48053;BME280;33824;51.600;5.718;2023-03-23T04:58:04;100016.19;;;13.56;84.44
48053;BME280;33824;51.600;5.718;2023-03-23T05:00:34;100009.94;;;13.62;83.39
48053;BME280;33824;51.600;5.718;2023-03-23T05:03:00;100015.75;;;13.59;83.92
48053;BME280;33824;51.600;5.718;2023-03-23T05:05:26;100011.59;;;13.63;83.67
48053;BME280;33824;51.600;5.718;2023-03-23T05:07:53;100016.56;;;13.60;83.41
48053;BME280;33824;51.600;5.718;2023-03-23T05:10:19;100019.63;;;13.63;83.26
48053;BME280;33824;51.600;5.718;2023-03-23T05:12:44;100013.06;;;13.66;83.23
48053;BME280;33824;51.600;5.718;2023-03-23T05:15:12;100019.22;;;13.66;82.97
48053;BME280;33824;51.600;5.718;2023-03-23T05:17:38;100017.59;;;13.65;82.92
48053;BME280;33824;51.600;5.718;2023-03-23T05:20:05;100013.88;;;13.60;82.67
48053;BME280;33824;51.600;5.718;2023-03-23T05:22:34;100019.69;;;13.57;82.90
48053;BME280;33824;51.600;5.718;2023-03-23T05:25:02;100011.41;;;13.65;82.77
48053;BME280;33824;51.600;5.718;2023-03-23T05:27:28;100012.25;;;13.59;82.80
48053;BME280;33824;51.600;5.718;2023-03-23T05:29:56;100013.06;;;13.59;82.95
48053;BME280;33824;51.600;5.718;2023-03-23T05:32:24;100012.47;;;13.57;82.33
48053;BME280;33824;51.600;5.718;2023-03-23T05:34:56;100008.34;;;13.55;82.75
48053;BME280;33824;51.600;5.718;2023-03-23T05:37:22;100015.16;;;13.57;82.71
48053;BME280;33824;51.600;5.718;2023-03-23T05:39:48;100033.91;;;13.57;83.21
48053;BME280;33824;51.600;5.718;2023-03-23T05:42:14;100027.28;;;13.60;83.25
48053;BME280;33824;51.600;5.718;2023-03-23T05:44:39;100030.19;;;13.58;83.65
48053;BME280;33824;51.600;5.718;2023-03-23T05:47:05;100023.63;;;13.54;83.94
48053;BME280;33824;51.600;5.718;2023-03-23T05:49:30;100031.22;;;13.51;84.70
48053;BME280;33824;51.600;5.718;2023-03-23T05:52:01;100017.66;;;13.45;85.08
48053;BME280;33824;51.600;5.718;2023-03-23T05:54:27;100016.41;;;13.48;85.00
48053;BME280;33824;51.600;5.718;2023-03-23T05:56:52;100029.00;;;13.41;85.88
48053;BME280;33824;51.600;5.718;2023-03-23T05:59:18;100033.34;;;13.35;86.73
48053;BME280;33824;51.600;5.718;2023-03-23T06:01:44;100023.69;;;13.34;87.17
48053;BME280;33824;51.600;5.718;2023-03-23T06:04:09;100016.47;;;13.35;87.05
48053;BME280;33824;51.600;5.718;2023-03-23T06:06:37;100024.91;;;13.32;87.83
48053;BME280;33824;51.600;5.718;2023-03-23T06:09:02;100033.59;;;13.27;88.31
48053;BME280;33824;51.600;5.718;2023-03-23T06:11:28;100035.88;;;13.24;88.88
48053;BME280;33824;51.600;5.718;2023-03-23T06:13:54;100033.84;;;13.19;89.36
48053;BME280;33824;51.600;5.718;2023-03-23T06:16:19;100038.56;;;13.17;89.90
48053;BME280;33824;51.600;5.718;2023-03-23T06:18:45;100037.53;;;13.18;89.85
48053;BME280;33824;51.600;5.718;2023-03-23T06:21:11;100031.72;;;13.28;89.57
48053;BME280;33824;51.600;5.718;2023-03-23T06:23:38;100048.41;;;13.30;89.38
48053;BME280;33824;51.600;5.718;2023-03-23T06:26:06;100059.16;;;13.23;89.48
48053;BME280;33824;51.600;5.718;2023-03-23T06:28:33;100059.56;;;13.27;89.74
48053;BME280;33824;51.600;5.718;2023-03-23T06:31:03;100065.72;;;13.27;89.20
48053;BME280;33824;51.600;5.718;2023-03-23T06:33:35;100070.03;;;13.28;89.20
48053;BME280;33824;51.600;5.718;2023-03-23T06:36:01;100071.28;;;13.26;89.23
48053;BME280;33824;51.600;5.718;2023-03-23T06:38:27;100083.63;;;13.33;89.14
48053;BME280;33824;51.600;5.718;2023-03-23T06:40:53;100076.63;;;13.26;88.96
48053;BME280;33824;51.600;5.718;2023-03-23T06:43:19;100091.25;;;13.30;88.85
48053;BME280;33824;51.600;5.718;2023-03-23T06:45:45;100084.25;;;13.29;88.63
48053;BME280;33824;51.600;5.718;2023-03-23T06:48:11;100085.69;;;13.31;88.51
48053;BME280;33824;51.600;5.718;2023-03-23T06:50:37;100077.84;;;13.36;87.81
48053;BME280;33824;51.600;5.718;2023-03-23T06:53:03;100091.84;;;13.38;88.29
48053;BME280;33824;51.600;5.718;2023-03-23T06:55:28;100095.56;;;13.37;88.15
48053;BME280;33824;51.600;5.718;2023-03-23T06:57:54;100093.28;;;13.41;87.82
48053;BME280;33824;51.600;5.718;2023-03-23T07:00:19;100097.63;;;13.42;87.72
48053;BME280;33824;51.600;5.718;2023-03-23T07:02:45;100097.63;;;13.42;87.75
48053;BME280;33824;51.600;5.718;2023-03-23T07:05:12;100101.13;;;13.42;88.15
48053;BME280;33824;51.600;5.718;2023-03-23T07:07:39;100105.88;;;13.34;88.47
48053;BME280;33824;51.600;5.718;2023-03-23T07:10:07;100113.06;;;13.33;89.06
48053;BME280;33824;51.600;5.718;2023-03-23T07:12:35;100098.84;;;13.33;89.17
48053;BME280;33824;51.600;5.718;2023-03-23T07:15:02;100092.91;;;13.31;89.04
48053;BME280;33824;51.600;5.718;2023-03-23T07:17:28;100102.38;;;13.33;88.94
48053;BME280;33824;51.600;5.718;2023-03-23T07:19:54;100098.63;;;13.41;88.27
48053;BME280;33824;51.600;5.718;2023-03-23T07:22:19;100121.53;;;13.30;88.87
48053;BME280;33824;51.600;5.718;2023-03-23T07:24:45;100131.84;;;13.14;90.17
48053;BME280;33824;51.600;5.718;2023-03-23T07:27:11;100128.34;;;13.00;91.27
48053;BME280;33824;51.600;5.718;2023-03-23T07:29:36;100129.97;;;12.81;93.17
48053;BME280;33824;51.600;5.718;2023-03-23T07:32:05;100141.91;;;12.59;95.14
48053;BME280;33824;51.600;5.718;2023-03-23T07:34:31;100142.88;;;12.45;97.00
48053;BME280;33824;51.600;5.718;2023-03-23T07:36:57;100141.81;;;12.26;98.83
48053;BME280;33824;51.600;5.718;2023-03-23T07:39:23;100137.69;;;12.17;99.97
48053;BME280;33824;51.600;5.718;2023-03-23T07:41:50;100139.72;;;12.02;100.00
48053;BME280;33824;51.600;5.718;2023-03-23T07:44:16;100150.09;;;11.84;100.00
48053;BME280;33824;51.600;5.718;2023-03-23T07:46:42;100139.69;;;11.61;100.00
48053;BME280;33824;51.600;5.718;2023-03-23T07:49:08;100146.44;;;11.57;100.00
48053;BME280;33824;51.600;5.718;2023-03-23T07:51:34;100177.19;;;11.46;100.00
48053;BME280;33824;51.600;5.718;2023-03-23T07:54:01;100163.41;;;11.43;100.00
48053;BME280;33824;51.600;5.718;2023-03-23T07:56:30;100168.84;;;11.28;100.00
48053;BME280;33824;51.600;5.718;2023-03-23T07:58:56;100157.59;;;11.05;100.00
48053;BME280;33824;51.600;5.718;2023-03-23T08:01:22;100169.69;;;10.80;100.00
48053;BME280;33824;51.600;5.718;2023-03-23T08:03:49;100171.16;;;10.61;100.00
48053;BME280;33824;51.600;5.718;2023-03-23T08:06:15;100166.13;;;10.51;100.00
48053;BME280;33824;51.600;5.718;2023-03-23T08:08:41;100165.25;;;10.44;100.00
48053;BME280;33824;51.600;5.718;2023-03-23T08:11:06;100188.34;;;10.37;100.00
48053;BME280;33824;51.600;5.718;2023-03-23T08:13:32;100195.44;;;10.30;100.00
48053;BME280;33824;51.600;5.718;2023-03-23T08:16:01;100195.06;;;10.33;100.00
48053;BME280;33824;51.600;5.718;2023-03-23T08:18:30;100191.94;;;10.30;100.00
48053;BME280;33824;51.600;5.718;2023-03-23T08:20:57;100185.63;;;10.31;100.00
48053;BME280;33824;51.600;5.718;2023-03-23T08:23:23;100191.75;;;10.31;100.00
48053;BME280;33824;51.600;5.718;2023-03-23T08:25:48;100190.19;;;10.37;100.00
48053;BME280;33824;51.600;5.718;2023-03-23T08:28:14;100197.69;;;10.48;100.00
48053;BME280;33824;51.600;5.718;2023-03-23T08:30:40;100199.78;;;10.52;100.00
48053;BME280;33824;51.600;5.718;2023-03-23T08:33:06;100193.78;;;10.65;100.00
48053;BME280;33824;51.600;5.718;2023-03-23T08:35:34;100189.00;;;10.82;100.00
48053;BME280;33824;51.600;5.718;2023-03-23T08:37:59;100192.63;;;10.95;100.00
48053;BME280;33824;51.600;5.718;2023-03-23T08:40:26;100197.34;;;11.00;100.00
48053;BME280;33824;51.600;5.718;2023-03-23T08:42:52;100196.03;;;11.11;100.00
48053;BME280;33824;51.600;5.718;2023-03-23T08:45:20;100213.88;;;11.10;100.00
48053;BME280;33824;51.600;5.718;2023-03-23T08:47:48;100198.53;;;11.19;100.00
48053;BME280;33824;51.600;5.718;2023-03-23T08:50:20;100197.38;;;11.28;100.00
48053;BME280;33824;51.600;5.718;2023-03-23T08:52:46;100198.69;;;11.38;100.00
48053;BME280;33824;51.600;5.718;2023-03-23T08:55:12;100194.19;;;11.39;100.00
48053;BME280;33824;51.600;5.718;2023-03-23T08:57:39;100182.94;;;11.50;100.00
48053;BME280;33824;51.600;5.718;2023-03-23T09:00:07;100196.34;;;11.56;99.04
48053;BME280;33824;51.600;5.718;2023-03-23T09:02:41;100199.28;;;11.68;98.69
48053;BME280;33824;51.600;5.718;2023-03-23T09:05:09;100200.75;;;11.71;97.77
48053;BME280;33824;51.600;5.718;2023-03-23T09:07:39;100201.91;;;11.89;97.77
48053;BME280;33824;51.600;5.718;2023-03-23T09:10:05;100209.25;;;11.81;96.54
48053;BME280;33824;51.600;5.718;2023-03-23T09:12:31;100208.13;;;11.96;97.05
48053;BME280;33824;51.600;5.718;2023-03-23T09:14:57;100195.66;;;12.17;96.13
48053;BME280;33824;51.600;5.718;2023-03-23T09:17:22;100197.94;;;12.26;94.61
48053;BME280;33824;51.600;5.718;2023-03-23T09:19:48;100201.09;;;12.36;93.96
48053;BME280;33824;51.600;5.718;2023-03-23T09:22:15;100190.59;;;12.48;93.48
48053;BME280;33824;51.600;5.718;2023-03-23T09:24:45;100177.81;;;12.37;92.85
48053;BME280;33824;51.600;5.718;2023-03-23T09:27:11;100192.06;;;12.50;93.70
48053;BME280;33824;51.600;5.718;2023-03-23T09:29:37;100201.53;;;12.53;94.36
48053;BME280;33824;51.600;5.718;2023-03-23T09:32:03;100197.66;;;12.69;94.64
48053;BME280;33824;51.600;5.718;2023-03-23T09:34:29;100206.09;;;12.66;93.79
48053;BME280;33824;51.600;5.718;2023-03-23T09:36:55;100198.91;;;12.66;92.21
48053;BME280;33824;51.600;5.718;2023-03-23T09:39:20;100207.09;;;12.58;91.81
48053;BME280;33824;51.600;5.718;2023-03-23T09:42:05;100217.34;;;12.41;92.18
48053;BME280;33824;51.600;5.718;2023-03-23T09:47:47;100218.69;;;12.18;93.82
48053;BME280;33824;51.600;5.718;2023-03-23T09:50:19;100213.16;;;12.26;94.35
48053;BME280;33824;51.600;5.718;2023-03-23T09:52:56;100212.38;;;12.32;94.77
48053;BME280;33824;51.600;5.718;2023-03-23T09:55:22;100224.75;;;12.39;94.96
48053;BME280;33824;51.600;5.718;2023-03-23T09:58:15;100222.25;;;12.38;93.73
48053;BME280;33824;51.600;5.718;2023-03-23T10:00:47;100220.31;;;12.79;94.20
48053;BME280;33824;51.600;5.718;2023-03-23T10:03:21;100220.94;;;12.88;93.69
48053;BME280;33824;51.600;5.718;2023-03-23T10:05:52;100231.22;;;12.97;93.58
48053;BME280;33824;51.600;5.718;2023-03-23T10:08:21;100232.53;;;13.15;93.33
48053;BME280;33824;51.600;5.718;2023-03-23T10:11:02;100235.16;;;12.95;90.52
48053;BME280;33824;51.600;5.718;2023-03-23T10:16:04;100244.06;;;13.22;93.26
48053;BME280;33824;51.600;5.718;2023-03-23T10:18:41;100241.38;;;13.41;90.93
48053;BME280;33824;51.600;5.718;2023-03-23T10:21:12;100242.63;;;13.45;89.96
48053;BME280;33824;51.600;5.718;2023-03-23T10:23:45;100223.88;;;13.52;90.12
48053;BME280;33824;51.600;5.718;2023-03-23T10:29:21;100237.25;;;13.59;87.81
48053;BME280;33824;51.600;5.718;2023-03-23T10:32:02;100252.66;;;13.83;88.99
48053;BME280;33824;51.600;5.718;2023-03-23T10:34:42;100252.28;;;13.73;86.69
48053;BME280;33824;51.600;5.718;2023-03-23T10:37:17;100251.88;;;13.76;86.63
48053;BME280;33824;51.600;5.718;2023-03-23T10:39:49;100258.81;;;14.03;85.26
48053;BME280;33824;51.600;5.718;2023-03-23T10:42:41;100243.09;;;14.13;86.89
48053;BME280;33824;51.600;5.718;2023-03-23T10:45:28;100250.38;;;14.57;84.22
48053;BME280;33824;51.600;5.718;2023-03-23T10:48:09;100258.00;;;14.60;83.35
48053;BME280;33824;51.600;5.718;2023-03-23T10:50:37;100271.78;;;14.70;83.46
48053;BME280;33824;51.600;5.718;2023-03-23T10:53:16;100253.19;;;14.75;80.15
48053;BME280;33824;51.600;5.718;2023-03-23T10:55:42;100259.63;;;14.68;82.55
48053;BME280;33824;51.600;5.718;2023-03-23T10:58:27;100253.56;;;14.41;82.11
48053;BME280;33824;51.600;5.718;2023-03-23T11:00:55;100259.19;;;14.71;84.18
48053;BME280;33824;51.600;5.718;2023-03-23T11:03:24;100249.41;;;14.83;83.20
48053;BME280;33824;51.600;5.718;2023-03-23T11:06:01;100246.00;;;14.63;80.54
48053;BME280;33824;51.600;5.718;2023-03-23T11:08:34;100252.25;;;14.88;82.31
48053;BME280;33824;51.600;5.718;2023-03-23T11:13:40;100246.25;;;14.93;80.92
48053;BME280;33824;51.600;5.718;2023-03-23T11:16:08;100254.53;;;14.91;80.84
48053;BME280;33824;51.600;5.718;2023-03-23T11:18:37;100262.34;;;14.93;80.93
48053;BME280;33824;51.600;5.718;2023-03-23T11:21:04;100245.66;;;14.84;80.54
48053;BME280;33824;51.600;5.718;2023-03-23T11:23:34;100233.38;;;15.01;80.00
48053;BME280;33824;51.600;5.718;2023-03-23T11:28:48;100245.59;;;15.22;80.03
48053;BME280;33824;51.600;5.718;2023-03-23T11:31:16;100246.03;;;15.25;80.45
48053;BME280;33824;51.600;5.718;2023-03-23T11:33:54;100248.41;;;15.09;77.71
48053;BME280;33824;51.600;5.718;2023-03-23T11:36:27;100255.00;;;15.13;77.64
48053;BME280;33824;51.600;5.718;2023-03-23T11:38:54;100249.63;;;15.37;78.63
48053;BME280;33824;51.600;5.718;2023-03-23T11:41:30;100243.66;;;15.35;76.37
48053;BME280;33824;51.600;5.718;2023-03-23T11:43:57;100262.16;;;15.19;76.74
48053;BME280;33824;51.600;5.718;2023-03-23T11:46:30;100252.63;;;14.98;75.04
48053;BME280;33824;51.600;5.718;2023-03-23T11:49:01;100250.59;;;14.94;73.79
48053;BME280;33824;51.600;5.718;2023-03-23T11:51:48;100259.97;;;14.78;76.33
48053;BME280;33824;51.600;5.718;2023-03-23T11:54:37;100273.19;;;14.79;76.83
48053;BME280;33824;51.600;5.718;2023-03-23T11:57:10;100270.09;;;15.07;78.36
48053;BME280;33824;51.600;5.718;2023-03-23T11:59:37;100268.09;;;15.27;78.26
48053;BME280;33824;51.600;5.718;2023-03-23T12:10:45;100240.50;;;15.88;73.39
48053;BME280;33824;51.600;5.718;2023-03-23T12:18:32;100224.03;;;16.69;72.13
48053;BME280;33824;51.600;5.718;2023-03-23T12:24:34;100238.75;;;16.48;71.16
48053;BME280;33824;51.600;5.718;2023-03-23T12:35:44;100234.50;;;16.41;69.40
48053;BME280;33824;51.600;5.718;2023-03-23T12:40:58;100217.19;;;16.66;68.72
48053;BME280;33824;51.600;5.718;2023-03-23T12:43:43;100208.13;;;16.79;67.32
48053;BME280;33824;51.600;5.718;2023-03-23T12:50:40;100188.34;;;17.38;67.44
48053;BME280;33824;51.600;5.718;2023-03-23T12:52:43;100187.03;;;17.29;65.35
48053;BME280;33824;51.600;5.718;2023-03-23T12:55:37;100187.38;;;17.21;66.53
48053;BME280;33824;51.600;5.718;2023-03-23T12:58:15;100192.63;;;17.27;65.25
48053;BME280;33824;51.600;5.718;2023-03-23T13:03:39;100185.94;;;16.36;66.49
48053;BME280;33824;51.600;5.718;2023-03-23T13:09:08;100181.84;;;17.16;68.38
48053;BME280;33824;51.600;5.718;2023-03-23T13:11:39;100198.41;;;17.19;67.16
48053;BME280;33824;51.600;5.718;2023-03-23T13:14:19;100215.41;;;16.90;66.29
48053;BME280;33824;51.600;5.718;2023-03-23T13:25:02;100209.81;;;16.92;66.21
48053;BME280;33824;51.600;5.718;2023-03-23T13:27:29;100209.94;;;16.97;67.61
48053;BME280;33824;51.600;5.718;2023-03-23T13:29:56;100197.22;;;17.15;66.23
48053;BME280;33824;51.600;5.718;2023-03-23T13:32:38;100204.91;;;17.00;66.25
48053;BME280;33824;51.600;5.718;2023-03-23T13:35:11;100195.41;;;16.98;66.40
48053;BME280;33824;51.600;5.718;2023-03-23T13:37:41;100197.09;;;17.10;66.68
48053;BME280;33824;51.600;5.718;2023-03-23T13:42:48;100195.69;;;17.31;65.00
48053;BME280;33824;51.600;5.718;2023-03-23T13:47:43;100198.25;;;17.14;63.97
48053;BME280;33824;51.600;5.718;2023-03-23T13:50:26;100184.63;;;16.86;64.24
48053;BME280;33824;51.600;5.718;2023-03-23T13:52:58;100179.34;;;16.79;65.15
48053;BME280;33824;51.600;5.718;2023-03-23T13:57:55;100207.44;;;16.54;67.82
48053;BME280;33824;51.600;5.718;2023-03-23T14:11:09;100245.47;;;13.64;92.35
48053;BME280;33824;51.600;5.718;2023-03-23T14:13:42;100258.69;;;13.26;94.51
48053;BME280;33824;51.600;5.718;2023-03-23T14:16:25;100254.56;;;13.17;96.92
48053;BME280;33824;51.600;5.718;2023-03-23T14:19:04;100251.69;;;13.38;96.72
48053;BME280;33824;51.600;5.718;2023-03-23T14:21:42;100242.19;;;13.35;97.10
48053;BME280;33824;51.600;5.718;2023-03-23T14:24:38;100236.63;;;13.04;95.33
48053;BME280;33824;51.600;5.718;2023-03-23T14:29:33;100217.25;;;13.55;97.76
48053;BME280;33824;51.600;5.718;2023-03-23T14:31:59;100225.28;;;13.81;99.51
48053;BME280;33824;51.600;5.718;2023-03-23T14:34:28;100211.22;;;13.92;99.87
48053;BME280;33824;51.600;5.718;2023-03-23T14:36:55;100213.66;;;14.00;100.00
48053;BME280;33824;51.600;5.718;2023-03-23T14:39:34;100188.44;;;14.14;96.97